sensor_id;sensor_type;location;lat;lon;timestamp;temperature;humidity
26691;DHT22;14307;51.718;8.938;2024-03-23T00:55:11;6.50;99.90
26691;DHT22;14307;51.718;8.938;2024-03-23T00:57:38;6.50;99.90
26691;DHT22;14307;51.718;8.938;2024-03-23T01:00:05;6.40;99.90
26691;DHT22;14307;51.718;8.938;2024-03-23T01:02:32;6.40;99.90
26691;DHT22;14307;51.718;8.938;2024-03-23T01:04:58;6.30;99.90
26691;DHT22;14307;51.718;8.938;2024-03-23T01:07:25;6.20;99.90
26691;DHT22;14307;51.718;8.938;2024-03-23T01:09:51;6.20;99.90
26691;DHT22;14307;51.718;8.938;2024-03-23T01:12:19;6.20;99.90
26691;DHT22;14307;51.718;8.938;2024-03-23T01:14:45;6.20;99.90
26691;DHT22;14307;51.718;8.938;2024-03-23T01:17:11;6.20;99.90
26691;DHT22;14307;51.718;8.938;2024-03-23T01:19:37;6.20;99.90
26691;DHT22;14307;51.718;8.938;2024-03-23T01:22:05;6.20;99.90
26691;DHT22;14307;51.718;8.938;2024-03-23T01:24:31;6.30;99.90
26691;DHT22;14307;51.718;8.938;2024-03-23T01:26:58;6.30;99.90
26691;DHT22;14307;51.718;8.938;2024-03-23T01:29:24;6.20;99.90
26691;DHT22;14307;51.718;8.938;2024-03-23T01:31:50;6.30;99.90
26691;DHT22;14307;51.718;8.938;2024-03-23T01:34:17;6.40;99.90
26691;DHT22;14307;51.718;8.938;2024-03-23T01:36:43;6.40;99.90
26691;DHT22;14307;51.718;8.938;2024-03-23T01:39:09;6.40;99.90
26691;DHT22;14307;51.718;8.938;2024-03-23T01:41:35;6.40;99.90
26691;DHT22;14307;51.718;8.938;2024-03-23T01:44:05;6.30;99.90
26691;DHT22;14307;51.718;8.938;2024-03-23T01:46:34;6.30;99.90
26691;DHT22;14307;51.718;8.938;2024-03-23T01:49:01;6.30;99.90
26691;DHT22;14307;51.718;8.938;2024-03-23T01:51:27;6.30;99.90
26691;DHT22;14307;51.718;8.938;2024-03-23T01:53:54;6.30;99.90
26691;DHT22;14307;51.718;8.938;2024-03-23T01:56:22;6.20;99.90
26691;DHT22;14307;51.718;8.938;2024-03-23T01:58:48;6.20;99.90
26691;DHT22;14307;51.718;8.938;2024-03-23T02:01:14;6.20;99.90
26691;DHT22;14307;51.718;8.938;2024-03-23T02:03:40;6.20;99.90
26691;DHT22;14307;51.718;8.938;2024-03-23T02:06:08;6.10;99.90
26691;DHT22;14307;51.718;8.938;2024-03-23T02:08:34;6.10;99.90
26691;DHT22;14307;51.718;8.938;2024-03-23T02:11:02;6.10;99.90
26691;DHT22;14307;51.718;8.938;2024-03-23T02:13:28;6.10;99.90
26691;DHT22;14307;51.718;8.938;2024-03-23T02:15:54;6.10;99.90
26691;DHT22;14307;51.718;8.938;2024-03-23T02:18:20;6.10;99.90
26691;DHT22;14307;51.718;8.938;2024-03-23T02:20:46;6.00;99.90
26691;DHT22;14307;51.718;8.938;2024-03-23T02:23:16;6.10;99.90
26691;DHT22;14307;51.718;8.938;2024-03-23T02:25:44;5.90;99.90
26691;DHT22;14307;51.718;8.938;2024-03-23T02:28:10;5.90;99.90
26691;DHT22;14307;51.718;8.938;2024-03-23T02:30:37;5.80;99.90
26691;DHT22;14307;51.718;8.938;2024-03-23T02:33:03;5.90;99.90
26691;DHT22;14307;51.718;8.938;2024-03-23T02:35:30;5.80;99.90
26691;DHT22;14307;51.718;8.938;2024-03-23T02:37:56;5.80;99.90
26691;DHT22;14307;51.718;8.938;2024-03-23T02:40:23;5.80;99.90
26691;DHT22;14307;51.718;8.938;2024-03-23T02:42:50;5.90;99.90
26691;DHT22;14307;51.718;8.938;2024-03-23T02:45:17;5.90;99.90
26691;DHT22;14307;51.718;8.938;2024-03-23T02:47:42;5.90;99.90
26691;DHT22;14307;51.718;8.938;2024-03-23T02:50:09;5.90;99.90
26691;DHT22;14307;51.718;8.938;2024-03-23T02:52:36;5.90;99.90
26691;DHT22;14307;51.718;8.938;2024-03-23T02:55:03;5.70;99.90
26691;DHT22;14307;51.718;8.938;2024-03-23T02:57:29;5.60;99.90
26691;DHT22;14307;51.718;8.938;2024-03-23T02:59:55;5.70;99.90
26691;DHT22;14307;51.718;8.938;2024-03-23T03:02:22;5.70;99.90
26691;DHT22;14307;51.718;8.938;2024-03-23T03:04:48;5.70;99.90
26691;DHT22;14307;51.718;8.938;2024-03-23T03:07:14;5.60;99.90
26691;DHT22;14307;51.718;8.938;2024-03-23T03:09:40;5.50;99.90
26691;DHT22;14307;51.718;8.938;2024-03-23T03:12:07;5.50;99.90
26691;DHT22;14307;51.718;8.938;2024-03-23T03:14:33;5.40;99.90
26691;DHT22;14307;51.718;8.938;2024-03-23T03:17:00;5.40;99.90
26691;DHT22;14307;51.718;8.938;2024-03-23T03:19:27;5.40;99.90
26691;DHT22;14307;51.718;8.938;2024-03-23T03:21:53;5.40;99.90
26691;DHT22;14307;51.718;8.938;2024-03-23T03:24:19;5.40;99.90
26691;DHT22;14307;51.718;8.938;2024-03-23T03:26:46;5.40;99.90
26691;DHT22;14307;51.718;8.938;2024-03-23T03:29:12;5.30;99.90
26691;DHT22;14307;51.718;8.938;2024-03-23T03:31:39;5.30;99.90
26691;DHT22;14307;51.718;8.938;2024-03-23T03:34:05;5.20;99.90
26691;DHT22;14307;51.718;8.938;2024-03-23T03:36:31;5.10;99.90
26691;DHT22;14307;51.718;8.938;2024-03-23T03:38:57;5.00;99.90
26691;DHT22;14307;51.718;8.938;2024-03-23T03:41:23;5.00;99.90
26691;DHT22;14307;51.718;8.938;2024-03-23T03:43:50;5.00;99.90
26691;DHT22;14307;51.718;8.938;2024-03-23T03:46:16;4.90;99.90
26691;DHT22;14307;51.718;8.938;2024-03-23T03:48:42;4.90;99.90
26691;DHT22;14307;51.718;8.938;2024-03-23T03:51:10;4.90;99.90
26691;DHT22;14307;51.718;8.938;2024-03-23T03:53:37;4.90;99.90
26691;DHT22;14307;51.718;8.938;2024-03-23T03:56:03;4.90;99.90
26691;DHT22;14307;51.718;8.938;2024-03-23T03:58:32;5.00;99.90
26691;DHT22;14307;51.718;8.938;2024-03-23T04:00:58;4.90;99.90
26691;DHT22;14307;51.718;8.938;2024-03-23T04:03:24;5.00;99.90
26691;DHT22;14307;51.718;8.938;2024-03-23T04:05:54;5.10;99.90
26691;DHT22;14307;51.718;8.938;2024-03-23T04:08:21;5.10;99.90
26691;DHT22;14307;51.718;8.938;2024-03-23T04:10:47;5.20;99.90
26691;DHT22;14307;51.718;8.938;2024-03-23T04:13:13;5.20;99.90
26691;DHT22;14307;51.718;8.938;2024-03-23T04:15:40;5.20;99.90
26691;DHT22;14307;51.718;8.938;2024-03-23T04:18:06;5.20;99.90
26691;DHT22;14307;51.718;8.938;2024-03-23T04:20:32;5.20;99.90
26691;DHT22;14307;51.718;8.938;2024-03-23T04:22:59;5.20;99.90
26691;DHT22;14307;51.718;8.938;2024-03-23T04:25:25;5.20;99.90
26691;DHT22;14307;51.718;8.938;2024-03-23T04:27:51;5.20;99.90
26691;DHT22;14307;51.718;8.938;2024-03-23T04:30:18;5.20;99.90
26691;DHT22;14307;51.718;8.938;2024-03-23T04:32:45;5.00;99.90
26691;DHT22;14307;51.718;8.938;2024-03-23T04:35:11;5.00;99.90
26691;DHT22;14307;51.718;8.938;2024-03-23T04:37:37;5.00;99.90
26691;DHT22;14307;51.718;8.938;2024-03-23T04:40:04;4.90;99.90
26691;DHT22;14307;51.718;8.938;2024-03-23T04:42:31;4.90;99.90
26691;DHT22;14307;51.718;8.938;2024-03-23T04:44:58;4.90;99.90
26691;DHT22;14307;51.718;8.938;2024-03-23T04:47:24;4.80;99.90
26691;DHT22;14307;51.718;8.938;2024-03-23T04:49:52;4.70;99.90
26691;DHT22;14307;51.718;8.938;2024-03-23T04:52:18;4.70;99.90
26691;DHT22;14307;51.718;8.938;2024-03-23T04:54:44;4.70;99.90
26691;DHT22;14307;51.718;8.938;2024-03-23T04:57:11;4.70;99.90
26691;DHT22;14307;51.718;8.938;2024-03-23T04:59:37;4.60;99.90
26691;DHT22;14307;51.718;8.938;2024-03-23T05:02:04;4.60;99.90
26691;DHT22;14307;51.718;8.938;2024-03-23T05:04:30;4.50;99.90
26691;DHT22;14307;51.718;8.938;2024-03-23T05:06:58;4.40;99.90
26691;DHT22;14307;51.718;8.938;2024-03-23T05:09:24;4.40;99.90
26691;DHT22;14307;51.718;8.938;2024-03-23T05:11:50;4.40;99.90
26691;DHT22;14307;51.718;8.938;2024-03-23T05:14:16;4.30;99.90
26691;DHT22;14307;51.718;8.938;2024-03-23T05:16:42;4.30;99.90
26691;DHT22;14307;51.718;8.938;2024-03-23T05:19:08;4.20;99.90
26691;DHT22;14307;51.718;8.938;2024-03-23T05:21:35;4.10;99.90
26691;DHT22;14307;51.718;8.938;2024-03-23T05:24:01;4.10;99.90
26691;DHT22;14307;51.718;8.938;2024-03-23T05:26:28;4.20;99.90
26691;DHT22;14307;51.718;8.938;2024-03-23T05:28:55;4.20;99.90
26691;DHT22;14307;51.718;8.938;2024-03-23T05:31:29;4.20;99.90
26691;DHT22;14307;51.718;8.938;2024-03-23T05:33:55;4.10;99.90
26691;DHT22;14307;51.718;8.938;2024-03-23T05:36:21;4.10;99.90
26691;DHT22;14307;51.718;8.938;2024-03-23T05:38:48;4.20;99.90
26691;DHT22;14307;51.718;8.938;2024-03-23T05:41:14;4.30;99.90
26691;DHT22;14307;51.718;8.938;2024-03-23T05:43:40;4.20;99.90
26691;DHT22;14307;51.718;8.938;2024-03-23T05:46:06;4.30;99.90
26691;DHT22;14307;51.718;8.938;2024-03-23T05:48:33;4.30;99.90
26691;DHT22;14307;51.718;8.938;2024-03-23T05:51:00;4.20;99.90
26691;DHT22;14307;51.718;8.938;2024-03-23T05:53:28;4.30;99.90
26691;DHT22;14307;51.718;8.938;2024-03-23T05:56:03;4.30;99.90
26691;DHT22;14307;51.718;8.938;2024-03-23T05:58:30;4.40;99.90
26691;DHT22;14307;51.718;8.938;2024-03-23T06:01:01;4.50;99.90
26691;DHT22;14307;51.718;8.938;2024-03-23T06:03:28;4.60;99.90
26691;DHT22;14307;51.718;8.938;2024-03-23T06:05:55;4.60;99.90
26691;DHT22;14307;51.718;8.938;2024-03-23T06:08:22;4.60;99.90
26691;DHT22;14307;51.718;8.938;2024-03-23T06:10:48;4.50;99.90
26691;DHT22;14307;51.718;8.938;2024-03-23T06:13:16;4.60;99.90
26691;DHT22;14307;51.718;8.938;2024-03-23T06:15:43;4.60;99.90
26691;DHT22;14307;51.718;8.938;2024-03-23T06:18:09;4.70;99.90
26691;DHT22;14307;51.718;8.938;2024-03-23T06:20:35;4.60;99.90
26691;DHT22;14307;51.718;8.938;2024-03-23T06:23:02;4.70;99.90
26691;DHT22;14307;51.718;8.938;2024-03-23T06:25:29;4.60;99.90
26691;DHT22;14307;51.718;8.938;2024-03-23T06:27:55;4.70;99.90
26691;DHT22;14307;51.718;8.938;2024-03-23T06:30:21;4.60;99.90
26691;DHT22;14307;51.718;8.938;2024-03-23T06:32:48;4.60;99.90
26691;DHT22;14307;51.718;8.938;2024-03-23T06:35:14;4.60;99.90
26691;DHT22;14307;51.718;8.938;2024-03-23T06:37:40;4.70;99.90
26691;DHT22;14307;51.718;8.938;2024-03-23T06:40:07;4.70;99.90
26691;DHT22;14307;51.718;8.938;2024-03-23T06:42:36;4.70;99.90
26691;DHT22;14307;51.718;8.938;2024-03-23T06:45:03;4.70;99.90
26691;DHT22;14307;51.718;8.938;2024-03-23T06:47:30;4.70;99.90
26691;DHT22;14307;51.718;8.938;2024-03-23T06:49:56;4.70;99.90
26691;DHT22;14307;51.718;8.938;2024-03-23T06:52:23;4.70;99.90
26691;DHT22;14307;51.718;8.938;2024-03-23T06:54:49;4.70;99.90
26691;DHT22;14307;51.718;8.938;2024-03-23T06:57:15;4.60;99.90
26691;DHT22;14307;51.718;8.938;2024-03-23T06:59:42;4.70;99.90
26691;DHT22;14307;51.718;8.938;2024-03-23T07:02:09;4.80;99.90
26691;DHT22;14307;51.718;8.938;2024-03-23T07:04:36;4.70;99.90
26691;DHT22;14307;51.718;8.938;2024-03-23T07:07:02;4.70;99.90
26691;DHT22;14307;51.718;8.938;2024-03-23T07:09:29;4.60;99.90
26691;DHT22;14307;51.718;8.938;2024-03-23T07:11:56;4.70;99.90
26691;DHT22;14307;51.718;8.938;2024-03-23T07:14:23;4.70;99.90
26691;DHT22;14307;51.718;8.938;2024-03-23T07:16:49;4.70;99.90
26691;DHT22;14307;51.718;8.938;2024-03-23T07:19:16;4.70;99.90
26691;DHT22;14307;51.718;8.938;2024-03-23T07:21:43;4.80;99.90
26691;DHT22;14307;51.718;8.938;2024-03-23T07:24:09;4.80;99.90
26691;DHT22;14307;51.718;8.938;2024-03-23T07:26:35;4.80;99.90
26691;DHT22;14307;51.718;8.938;2024-03-23T07:29:02;4.80;99.90
26691;DHT22;14307;51.718;8.938;2024-03-23T07:31:28;4.80;99.90
26691;DHT22;14307;51.718;8.938;2024-03-23T07:33:54;4.90;99.90
26691;DHT22;14307;51.718;8.938;2024-03-23T07:36:21;4.90;99.90
26691;DHT22;14307;51.718;8.938;2024-03-23T07:38:47;4.90;99.90
26691;DHT22;14307;51.718;8.938;2024-03-23T07:41:20;4.90;99.90
26691;DHT22;14307;51.718;8.938;2024-03-23T07:43:47;5.00;99.90
26691;DHT22;14307;51.718;8.938;2024-03-23T07:46:15;5.10;99.90
26691;DHT22;14307;51.718;8.938;2024-03-23T07:48:41;5.00;99.90
26691;DHT22;14307;51.718;8.938;2024-03-23T07:51:21;5.00;99.90
26691;DHT22;14307;51.718;8.938;2024-03-23T07:53:48;5.10;99.90
26691;DHT22;14307;51.718;8.938;2024-03-23T07:56:15;5.20;99.90
26691;DHT22;14307;51.718;8.938;2024-03-23T07:58:42;5.20;99.90
26691;DHT22;14307;51.718;8.938;2024-03-23T08:01:10;5.30;99.90
26691;DHT22;14307;51.718;8.938;2024-03-23T08:03:37;5.30;99.90
26691;DHT22;14307;51.718;8.938;2024-03-23T08:06:22;5.40;99.90
26691;DHT22;14307;51.718;8.938;2024-03-23T08:08:54;5.40;99.90
26691;DHT22;14307;51.718;8.938;2024-03-23T08:11:30;5.40;99.90
26691;DHT22;14307;51.718;8.938;2024-03-23T08:13:57;5.30;99.90
26691;DHT22;14307;51.718;8.938;2024-03-23T08:16:23;5.40;99.90
26691;DHT22;14307;51.718;8.938;2024-03-23T08:18:53;5.50;99.90
26691;DHT22;14307;51.718;8.938;2024-03-23T08:21:21;5.60;99.90
26691;DHT22;14307;51.718;8.938;2024-03-23T08:23:48;5.60;99.90
26691;DHT22;14307;51.718;8.938;2024-03-23T08:26:16;5.60;99.90
26691;DHT22;14307;51.718;8.938;2024-03-23T08:28:43;5.60;99.90
26691;DHT22;14307;51.718;8.938;2024-03-23T08:31:11;5.50;99.90
26691;DHT22;14307;51.718;8.938;2024-03-23T08:33:38;5.40;99.90
26691;DHT22;14307;51.718;8.938;2024-03-23T08:36:06;5.50;99.90
26691;DHT22;14307;51.718;8.938;2024-03-23T08:38:32;5.70;99.90
26691;DHT22;14307;51.718;8.938;2024-03-23T08:40:59;5.70;99.90
26691;DHT22;14307;51.718;8.938;2024-03-23T08:43:27;5.80;99.90
26691;DHT22;14307;51.718;8.938;2024-03-23T08:45:53;6.00;99.90
26691;DHT22;14307;51.718;8.938;2024-03-23T08:48:20;6.10;99.90
26691;DHT22;14307;51.718;8.938;2024-03-23T08:51:07;6.30;99.90
26691;DHT22;14307;51.718;8.938;2024-03-23T08:53:35;6.20;99.90
26691;DHT22;14307;51.718;8.938;2024-03-23T08:56:03;6.20;99.90
26691;DHT22;14307;51.718;8.938;2024-03-23T08:58:30;6.30;99.90
26691;DHT22;14307;51.718;8.938;2024-03-23T09:01:04;6.40;99.90
26691;DHT22;14307;51.718;8.938;2024-03-23T09:03:31;6.50;99.90
26691;DHT22;14307;51.718;8.938;2024-03-23T09:05:57;6.40;99.90
26691;DHT22;14307;51.718;8.938;2024-03-23T09:08:25;6.30;99.90
26691;DHT22;14307;51.718;8.938;2024-03-23T09:10:52;6.30;99.90
26691;DHT22;14307;51.718;8.938;2024-03-23T09:13:18;6.20;99.90
26691;DHT22;14307;51.718;8.938;2024-03-23T09:15:51;6.20;99.90
26691;DHT22;14307;51.718;8.938;2024-03-23T09:18:17;6.30;99.90
26691;DHT22;14307;51.718;8.938;2024-03-23T09:20:44;6.30;99.90
26691;DHT22;14307;51.718;8.938;2024-03-23T09:23:10;6.30;99.90
26691;DHT22;14307;51.718;8.938;2024-03-23T09:25:37;6.30;99.90
26691;DHT22;14307;51.718;8.938;2024-03-23T09:28:05;6.50;99.90
26691;DHT22;14307;51.718;8.938;2024-03-23T09:30:32;6.70;99.90
26691;DHT22;14307;51.718;8.938;2024-03-23T09:32:59;7.00;99.90
26691;DHT22;14307;51.718;8.938;2024-03-23T09:35:27;7.00;99.90
26691;DHT22;14307;51.718;8.938;2024-03-23T09:37:53;7.00;99.90
26691;DHT22;14307;51.718;8.938;2024-03-23T09:40:20;7.00;99.90
26691;DHT22;14307;51.718;8.938;2024-03-23T09:42:50;7.20;99.90
26691;DHT22;14307;51.718;8.938;2024-03-23T09:45:21;7.20;99.90
26691;DHT22;14307;51.718;8.938;2024-03-23T09:47:48;7.40;99.90
26691;DHT22;14307;51.718;8.938;2024-03-23T09:50:14;7.40;99.90
26691;DHT22;14307;51.718;8.938;2024-03-23T09:52:40;7.60;99.90
26691;DHT22;14307;51.718;8.938;2024-03-23T09:55:09;7.70;99.90
26691;DHT22;14307;51.718;8.938;2024-03-23T09:57:35;7.60;99.90
26691;DHT22;14307;51.718;8.938;2024-03-23T10:00:02;7.40;99.90
26691;DHT22;14307;51.718;8.938;2024-03-23T10:02:33;7.10;99.90
26691;DHT22;14307;51.718;8.938;2024-03-23T10:05:00;6.90;99.90
26691;DHT22;14307;51.718;8.938;2024-03-23T10:07:28;6.70;99.90
26691;DHT22;14307;51.718;8.938;2024-03-23T10:09:56;6.60;99.90
26691;DHT22;14307;51.718;8.938;2024-03-23T10:12:23;6.70;99.90
26691;DHT22;14307;51.718;8.938;2024-03-23T10:14:50;6.70;99.90
26691;DHT22;14307;51.718;8.938;2024-03-23T10:19:50;6.90;99.90
26691;DHT22;14307;51.718;8.938;2024-03-23T10:22:21;7.50;99.90
26691;DHT22;14307;51.718;8.938;2024-03-23T10:24:49;7.80;99.90
26691;DHT22;14307;51.718;8.938;2024-03-23T10:27:19;8.20;99.90
26691;DHT22;14307;51.718;8.938;2024-03-23T10:29:47;8.50;99.90
26691;DHT22;14307;51.718;8.938;2024-03-23T10:32:15;8.50;99.90
26691;DHT22;14307;51.718;8.938;2024-03-23T10:34:41;8.80;99.90
26691;DHT22;14307;51.718;8.938;2024-03-23T10:37:08;8.80;99.90
26691;DHT22;14307;51.718;8.938;2024-03-23T10:39:41;8.40;99.90
26691;DHT22;14307;51.718;8.938;2024-03-23T10:42:09;8.60;99.90
26691;DHT22;14307;51.718;8.938;2024-03-23T10:44:36;8.80;99.90
26691;DHT22;14307;51.718;8.938;2024-03-23T10:47:03;9.10;99.90
26691;DHT22;14307;51.718;8.938;2024-03-23T10:49:33;8.80;99.90
26691;DHT22;14307;51.718;8.938;2024-03-23T10:52:04;9.00;99.90
26691;DHT22;14307;51.718;8.938;2024-03-23T10:54:31;9.00;99.90
26691;DHT22;14307;51.718;8.938;2024-03-23T10:57:18;8.80;99.90
26691;DHT22;14307;51.718;8.938;2024-03-23T10:59:46;9.00;99.90
26691;DHT22;14307;51.718;8.938;2024-03-23T11:02:19;8.80;99.90
26691;DHT22;14307;51.718;8.938;2024-03-23T11:04:46;8.00;99.90
26691;DHT22;14307;51.718;8.938;2024-03-23T11:09:56;4.90;99.90
26691;DHT22;14307;51.718;8.938;2024-03-23T11:15:27;3.30;99.90
26691;DHT22;14307;51.718;8.938;2024-03-23T11:18:05;3.00;99.90
26691;DHT22;14307;51.718;8.938;2024-03-23T11:20:34;2.90;99.90
26691;DHT22;14307;51.718;8.938;2024-03-23T11:23:01;3.00;99.90
26691;DHT22;14307;51.718;8.938;2024-03-23T11:25:28;3.20;99.90
26691;DHT22;14307;51.718;8.938;2024-03-23T11:28:10;3.30;99.90
26691;DHT22;14307;51.718;8.938;2024-03-23T11:30:36;3.60;99.90
26691;DHT22;14307;51.718;8.938;2024-03-23T11:33:04;3.90;99.90
26691;DHT22;14307;51.718;8.938;2024-03-23T11:35:37;4.20;99.90
26691;DHT22;14307;51.718;8.938;2024-03-23T11:38:16;4.50;99.90
26691;DHT22;14307;51.718;8.938;2024-03-23T11:40:49;4.70;99.90
26691;DHT22;14307;51.718;8.938;2024-03-23T11:43:17;4.80;99.90
26691;DHT22;14307;51.718;8.938;2024-03-23T11:45:51;4.70;99.90
26691;DHT22;14307;51.718;8.938;2024-03-23T11:48:20;4.40;99.90
26691;DHT22;14307;51.718;8.938;2024-03-23T11:50:48;4.20;99.90
26691;DHT22;14307;51.718;8.938;2024-03-23T11:53:16;4.30;99.90
26691;DHT22;14307;51.718;8.938;2024-03-23T11:55:50;4.80;99.90
26691;DHT22;14307;51.718;8.938;2024-03-23T11:58:18;5.40;99.90
26691;DHT22;14307;51.718;8.938;2024-03-23T12:03:19;6.10;99.90
26691;DHT22;14307;51.718;8.938;2024-03-23T12:05:49;6.50;99.90
26691;DHT22;14307;51.718;8.938;2024-03-23T12:08:21;6.90;99.90
26691;DHT22;14307;51.718;8.938;2024-03-23T12:10:52;7.30;99.90
26691;DHT22;14307;51.718;8.938;2024-03-23T12:13:20;7.20;99.90
26691;DHT22;14307;51.718;8.938;2024-03-23T12:15:49;7.50;99.90
26691;DHT22;14307;51.718;8.938;2024-03-23T12:18:15;7.90;99.90
26691;DHT22;14307;51.718;8.938;2024-03-23T12:20:41;8.20;99.90
26691;DHT22;14307;51.718;8.938;2024-03-23T12:23:12;8.20;99.90
26691;DHT22;14307;51.718;8.938;2024-03-23T12:25:41;7.90;99.90
26691;DHT22;14307;51.718;8.938;2024-03-23T12:28:07;7.60;99.90
26691;DHT22;14307;51.718;8.938;2024-03-23T12:30:35;7.20;99.90
26691;DHT22;14307;51.718;8.938;2024-03-23T12:33:01;6.60;99.90
26691;DHT22;14307;51.718;8.938;2024-03-23T12:35:27;6.00;99.90
26691;DHT22;14307;51.718;8.938;2024-03-23T12:37:53;5.80;99.90
26691;DHT22;14307;51.718;8.938;2024-03-23T12:40:19;5.60;99.90
26691;DHT22;14307;51.718;8.938;2024-03-23T12:42:46;5.50;99.90
26691;DHT22;14307;51.718;8.938;2024-03-23T12:45:12;5.30;99.90
26691;DHT22;14307;51.718;8.938;2024-03-23T12:47:38;5.10;99.90
26691;DHT22;14307;51.718;8.938;2024-03-23T12:50:04;5.20;99.90
26691;DHT22;14307;51.718;8.938;2024-03-23T12:52:32;5.20;99.90
26691;DHT22;14307;51.718;8.938;2024-03-23T12:54:59;5.40;99.90
26691;DHT22;14307;51.718;8.938;2024-03-23T12:57:26;5.60;99.90
26691;DHT22;14307;51.718;8.938;2024-03-23T12:59:53;5.70;99.90
26691;DHT22;14307;51.718;8.938;2024-03-23T13:02:22;5.90;99.90
26691;DHT22;14307;51.718;8.938;2024-03-23T13:04:53;5.70;99.90
26691;DHT22;14307;51.718;8.938;2024-03-23T13:07:20;5.40;99.90
26691;DHT22;14307;51.718;8.938;2024-03-23T13:09:49;5.10;99.90
26691;DHT22;14307;51.718;8.938;2024-03-23T13:12:15;4.70;99.90
26691;DHT22;14307;51.718;8.938;2024-03-23T13:14:42;4.50;99.90
26691;DHT22;14307;51.718;8.938;2024-03-23T13:17:08;4.50;99.90
26691;DHT22;14307;51.718;8.938;2024-03-23T13:19:34;4.60;99.90
26691;DHT22;14307;51.718;8.938;2024-03-23T13:22:01;4.90;99.90
26691;DHT22;14307;51.718;8.938;2024-03-23T13:24:30;5.00;99.90
26691;DHT22;14307;51.718;8.938;2024-03-23T13:26:56;5.10;99.90
26691;DHT22;14307;51.718;8.938;2024-03-23T13:29:23;5.00;99.90
26691;DHT22;14307;51.718;8.938;2024-03-23T13:31:51;5.10;99.90
26691;DHT22;14307;51.718;8.938;2024-03-23T13:34:18;5.30;99.90
26691;DHT22;14307;51.718;8.938;2024-03-23T13:36:45;5.50;99.90
26691;DHT22;14307;51.718;8.938;2024-03-23T13:39:12;5.90;99.90
26691;DHT22;14307;51.718;8.938;2024-03-23T13:41:38;6.00;99.90
26691;DHT22;14307;51.718;8.938;2024-03-23T13:44:08;6.30;99.90
26691;DHT22;14307;51.718;8.938;2024-03-23T13:46:38;6.60;99.90
26691;DHT22;14307;51.718;8.938;2024-03-23T13:49:06;6.80;99.90
26691;DHT22;14307;51.718;8.938;2024-03-23T13:51:32;7.10;99.90
26691;DHT22;14307;51.718;8.938;2024-03-23T13:53:58;7.10;99.90
26691;DHT22;14307;51.718;8.938;2024-03-23T13:56:28;7.00;99.90
26691;DHT22;14307;51.718;8.938;2024-03-23T13:58:58;7.10;99.90
26691;DHT22;14307;51.718;8.938;2024-03-23T14:01:24;7.30;99.90
26691;DHT22;14307;51.718;8.938;2024-03-23T14:03:50;7.30;99.90
26691;DHT22;14307;51.718;8.938;2024-03-23T14:06:16;7.50;99.90
26691;DHT22;14307;51.718;8.938;2024-03-23T14:08:42;7.60;99.90
26691;DHT22;14307;51.718;8.938;2024-03-23T14:11:09;7.70;99.90
26691;DHT22;14307;51.718;8.938;2024-03-23T14:13:37;7.70;99.90
26691;DHT22;14307;51.718;8.938;2024-03-23T14:16:03;7.80;99.90
26691;DHT22;14307;51.718;8.938;2024-03-23T14:18:29;7.60;99.90
26691;DHT22;14307;51.718;8.938;2024-03-23T14:21:00;7.60;99.90
26691;DHT22;14307;51.718;8.938;2024-03-23T14:23:28;7.80;99.90
26691;DHT22;14307;51.718;8.938;2024-03-23T14:26:00;7.70;99.90
26691;DHT22;14307;51.718;8.938;2024-03-23T14:28:27;7.50;99.90
26691;DHT22;14307;51.718;8.938;2024-03-23T14:30:55;7.60;99.90
26691;DHT22;14307;51.718;8.938;2024-03-23T14:33:21;7.80;99.90
26691;DHT22;14307;51.718;8.938;2024-03-23T14:35:57;7.80;99.90
26691;DHT22;14307;51.718;8.938;2024-03-23T14:38:23;7.50;99.90
26691;DHT22;14307;51.718;8.938;2024-03-23T14:40:50;7.20;99.90
26691;DHT22;14307;51.718;8.938;2024-03-23T14:43:18;6.20;99.90
26691;DHT22;14307;51.718;8.938;2024-03-23T14:48:34;5.30;99.90
26691;DHT22;14307;51.718;8.938;2024-03-23T14:51:02;5.30;99.90
26691;DHT22;14307;51.718;8.938;2024-03-23T14:53:32;5.30;99.90
26691;DHT22;14307;51.718;8.938;2024-03-23T14:56:03;5.70;99.90
26691;DHT22;14307;51.718;8.938;2024-03-23T14:58:29;6.20;99.90
26691;DHT22;14307;51.718;8.938;2024-03-23T15:01:06;6.50;99.90
26691;DHT22;14307;51.718;8.938;2024-03-23T15:03:39;6.80;99.90
26691;DHT22;14307;51.718;8.938;2024-03-23T15:06:06;7.10;99.90
26691;DHT22;14307;51.718;8.938;2024-03-23T15:08:35;7.10;99.90
26691;DHT22;14307;51.718;8.938;2024-03-23T15:11:03;7.10;99.90
26691;DHT22;14307;51.718;8.938;2024-03-23T15:13:38;7.20;99.90
26691;DHT22;14307;51.718;8.938;2024-03-23T15:16:05;7.20;99.90
26691;DHT22;14307;51.718;8.938;2024-03-23T15:18:34;7.30;99.90
26691;DHT22;14307;51.718;8.938;2024-03-23T15:21:02;7.20;99.90
26691;DHT22;14307;51.718;8.938;2024-03-23T15:23:31;6.90;99.90
26691;DHT22;14307;51.718;8.938;2024-03-23T15:25:59;6.70;99.90
26691;DHT22;14307;51.718;8.938;2024-03-23T15:28:27;6.60;99.90
26691;DHT22;14307;51.718;8.938;2024-03-23T15:31:04;6.50;99.90
26691;DHT22;14307;51.718;8.938;2024-03-23T15:33:30;5.90;99.90
26691;DHT22;14307;51.718;8.938;2024-03-23T15:36:00;5.40;99.90
26691;DHT22;14307;51.718;8.938;2024-03-23T15:38:27;5.20;99.90
26691;DHT22;14307;51.718;8.938;2024-03-23T15:40:53;5.30;99.90
26691;DHT22;14307;51.718;8.938;2024-03-23T15:43:19;5.40;99.90
26691;DHT22;14307;51.718;8.938;2024-03-23T15:46:00;5.70;99.90
26691;DHT22;14307;51.718;8.938;2024-03-23T15:48:28;5.80;99.90
26691;DHT22;14307;51.718;8.938;2024-03-23T15:50:57;5.80;99.90
26691;DHT22;14307;51.718;8.938;2024-03-23T15:53:24;5.80;99.90
26691;DHT22;14307;51.718;8.938;2024-03-23T15:56:01;5.80;99.90
26691;DHT22;14307;51.718;8.938;2024-03-23T15:58:29;5.90;99.90
26691;DHT22;14307;51.718;8.938;2024-03-23T16:01:03;5.90;99.90
26691;DHT22;14307;51.718;8.938;2024-03-23T16:03:31;6.00;99.90
26691;DHT22;14307;51.718;8.938;2024-03-23T16:06:05;5.90;99.90
26691;DHT22;14307;51.718;8.938;2024-03-23T16:08:33;5.90;99.90
26691;DHT22;14307;51.718;8.938;2024-03-23T16:11:04;6.00;99.90
26691;DHT22;14307;51.718;8.938;2024-03-23T16:13:31;6.00;99.90
26691;DHT22;14307;51.718;8.938;2024-03-23T16:15:58;6.10;99.90
26691;DHT22;14307;51.718;8.938;2024-03-23T16:18:25;6.20;99.90
26691;DHT22;14307;51.718;8.938;2024-03-23T16:20:59;6.30;99.90
26691;DHT22;14307;51.718;8.938;2024-03-23T16:23:27;6.40;99.90
26691;DHT22;14307;51.718;8.938;2024-03-23T16:25:55;6.40;99.90
26691;DHT22;14307;51.718;8.938;2024-03-23T16:28:23;6.30;99.90
26691;DHT22;14307;51.718;8.938;2024-03-23T16:30:54;6.20;99.90
26691;DHT22;14307;51.718;8.938;2024-03-23T16:33:21;6.20;99.90
26691;DHT22;14307;51.718;8.938;2024-03-23T16:36:07;6.20;99.90
26691;DHT22;14307;51.718;8.938;2024-03-23T16:38:38;6.30;99.90
26691;DHT22;14307;51.718;8.938;2024-03-23T16:43:35;6.30;99.90
26691;DHT22;14307;51.718;8.938;2024-03-23T16:48:30;6.20;99.90
26691;DHT22;14307;51.718;8.938;2024-03-23T16:50:57;6.30;99.90
26691;DHT22;14307;51.718;8.938;2024-03-23T16:53:24;6.20;99.90
26691;DHT22;14307;51.718;8.938;2024-03-23T16:56:00;6.20;99.90
26691;DHT22;14307;51.718;8.938;2024-03-23T16:58:31;6.20;99.90
26691;DHT22;14307;51.718;8.938;2024-03-23T17:01:03;6.20;99.90